createdAt,value
2023-02-12T00:01:14.819Z,102275.03
2023-02-12T00:03:42.580Z,102258.94
2023-02-12T00:06:10.367Z,102269.97
2023-02-12T00:08:38.096Z,102280.03
2023-02-12T00:11:05.782Z,102272.00
2023-02-12T00:13:33.717Z,102269.28
2023-02-12T00:16:01.568Z,102264.69
2023-02-12T00:18:29.274Z,102271.13
2023-02-12T00:20:57.093Z,102263.97
2023-02-12T00:23:24.832Z,102269.41
2023-02-12T00:25:52.960Z,102265.97
2023-02-12T00:28:20.954Z,102263.22
2023-02-12T00:30:48.890Z,102260.50
2023-02-12T00:33:16.809Z,102264.25
2023-02-12T00:35:44.649Z,102261.53
2023-02-12T00:38:12.418Z,102264.25
2023-02-12T00:40:40.300Z,102270.72
2023-02-12T00:43:08.028Z,102277.16
2023-02-12T00:45:38.073Z,102277.16
2023-02-12T00:48:05.841Z,102278.16
2023-02-12T00:50:33.885Z,102281.03
2023-02-12T00:53:01.603Z,102287.34
2023-02-12T00:55:29.356Z,102275.56
2023-02-12T00:57:57.100Z,102291.06
2023-02-12T01:00:24.839Z,102286.63
2023-02-12T01:02:52.645Z,102293.91
2023-02-12T01:05:20.436Z,102290.50
2023-02-12T01:07:48.218Z,102296.81
2023-02-12T01:10:15.930Z,102295.06
2023-02-12T01:12:43.652Z,102290.63
2023-02-12T01:15:11.502Z,102296.06
2023-02-12T01:17:39.214Z,102293.34
2023-02-12T01:20:07.365Z,102289.78
2023-02-12T01:22:35.064Z,102289.91
2023-02-12T01:25:02.792Z,102290.91
2023-02-12T01:27:30.596Z,102289.28
2023-02-12T01:29:58.345Z,102292.16
2023-02-12T01:35:47.981Z,102292.44
2023-02-12T01:38:20.317Z,102295.16
2023-02-12T01:40:50.276Z,102292.44
2023-02-12T01:43:42.530Z,102295.16
2023-02-12T01:46:14.162Z,102288.97
2023-02-12T01:48:52.066Z,102291.56
2023-02-12T01:51:25.122Z,102290.72
2023-02-12T01:53:52.972Z,102285.25
2023-02-12T01:56:20.792Z,102290.72
2023-02-12T01:59:01.811Z,102289.81
2023-02-12T02:01:43.769Z,102290.97
2023-02-12T02:04:17.674Z,102289.13
2023-02-12T02:06:48.980Z,102287.38
2023-02-12T02:09:19.883Z,102291.97
2023-02-12T02:12:05.532Z,102292.84
2023-02-12T02:14:36.018Z,102293.00
2023-02-12T02:17:03.837Z,102285.81
2023-02-12T02:19:31.745Z,102283.81
2023-02-12T02:21:59.501Z,102283.81
2023-02-12T02:24:27.401Z,102286.53
2023-02-12T02:26:55.074Z,102282.94
2023-02-12T02:29:22.822Z,102287.53
2023-02-12T02:31:50.720Z,102284.09
2023-02-12T02:34:18.524Z,102283.94
2023-02-12T02:36:59.827Z,102283.81
2023-02-12T02:39:28.459Z,102287.53
2023-02-12T02:41:56.200Z,102288.53
2023-02-12T02:44:23.941Z,102281.47
2023-02-12T02:46:51.943Z,102286.81
2023-02-12T02:49:19.643Z,102286.81
2023-02-12T02:51:48.890Z,102281.47
2023-02-12T02:54:16.612Z,102288.81
2023-02-12T02:56:44.412Z,102285.22
2023-02-12T02:59:12.171Z,102290.81
2023-02-12T03:01:39.855Z,102290.81
2023-02-12T03:04:07.647Z,102285.50
2023-02-12T03:06:35.419Z,102289.94
2023-02-12T03:09:03.172Z,102290.81
2023-02-12T03:11:30.871Z,102294.41
2023-02-12T03:13:58.622Z,102293.53
2023-02-12T03:16:26.407Z,102308.03
2023-02-12T03:18:54.127Z,102303.72
2023-02-12T03:21:21.851Z,102308.16
2023-02-12T03:23:49.610Z,102313.63
2023-02-12T03:26:18.310Z,102313.63
2023-02-12T03:28:46.095Z,102313.63
2023-02-12T03:31:14.457Z,102321.78
2023-02-12T03:33:42.311Z,102319.06
2023-02-12T03:36:10.072Z,102317.34
2023-02-12T03:38:37.767Z,102318.94
2023-02-12T03:41:05.520Z,102325.38
2023-02-12T03:43:33.275Z,102329.97
2023-02-12T03:46:01.028Z,102332.69
2023-02-12T03:48:28.835Z,102339.84
2023-02-12T03:50:56.619Z,102342.56
2023-02-12T03:53:24.342Z,102338.00
2023-02-12T03:55:52.151Z,102346.31
2023-02-12T03:58:19.880Z,102344.59
2023-02-12T04:00:47.651Z,102346.44
2023-02-12T04:03:15.481Z,102357.50
2023-02-12T04:05:43.252Z,102356.63
2023-02-12T04:08:11.002Z,102354.78
2023-02-12T04:10:38.709Z,102354.78
2023-02-12T04:13:06.472Z,102361.19
2023-02-12T04:15:34.356Z,102354.88
2023-02-12T04:18:02.215Z,102365.78
2023-02-12T04:20:30.114Z,102365.78
2023-02-12T04:22:57.971Z,102365.94
2023-02-12T04:25:25.725Z,102370.66
2023-02-12T04:27:53.478Z,102376.09
2023-02-12T04:30:21.231Z,102373.38
2023-02-12T04:32:49.005Z,102381.56
2023-02-12T04:35:16.893Z,102372.38
2023-02-12T04:37:44.695Z,102381.28
2023-02-12T04:40:12.421Z,102383.16
2023-02-12T04:42:40.218Z,102379.69
2023-02-12T04:45:08.022Z,102391.16
2023-02-12T04:47:35.781Z,102391.16
2023-02-12T04:50:03.505Z,102389.34
2023-02-12T04:52:31.281Z,102397.50
2023-02-12T04:54:59.035Z,102391.03
2023-02-12T04:57:26.819Z,102389.06
2023-02-12T04:59:54.587Z,102387.19
2023-02-12T05:02:22.354Z,102390.78
2023-02-12T05:04:50.172Z,102388.91
2023-02-12T05:07:17.992Z,102383.44
2023-02-12T05:09:45.751Z,102392.50
2023-02-12T05:12:13.496Z,102387.06
2023-02-12T05:14:41.318Z,102397.34
2023-02-12T05:17:09.130Z,102383.28
2023-02-12T05:19:36.942Z,102390.72
2023-02-12T05:22:04.666Z,102381.84
2023-02-12T05:24:32.470Z,102382.97
2023-02-12T05:27:00.304Z,102397.72
2023-02-12T05:29:28.002Z,102395.00
2023-02-12T05:31:55.791Z,102389.78
2023-02-12T05:34:23.588Z,102397.25
2023-02-12T05:36:51.402Z,102390.06
2023-02-12T05:39:19.146Z,102379.91
2023-02-12T05:41:46.893Z,102398.69
2023-02-12T05:44:15.236Z,102396.72
2023-02-12T05:46:43.116Z,102389.56
2023-02-12T05:49:10.993Z,102392.56
2023-02-12T05:51:38.734Z,102391.09
2023-02-12T05:54:06.652Z,102401.03
2023-02-12T05:56:34.378Z,102402.31
2023-02-12T05:59:03.497Z,102395.34
2023-02-12T06:01:31.285Z,102402.94
2023-02-12T06:03:59.120Z,102400.00
2023-02-12T06:06:27.054Z,102408.44
2023-02-12T06:08:54.957Z,102407.28
2023-02-12T06:11:22.735Z,102407.28
2023-02-12T06:13:50.463Z,102405.56
2023-02-12T06:16:18.293Z,102417.94
2023-02-12T06:18:46.089Z,102420.94
2023-02-12T06:21:13.879Z,102424.13
2023-02-12T06:23:41.753Z,102424.97
2023-02-12T06:26:09.604Z,102433.53
2023-02-12T06:28:37.444Z,102439.69
2023-02-12T06:31:05.616Z,102434.34
2023-02-12T06:33:35.663Z,102442.03
2023-02-12T06:36:03.515Z,102440.38
2023-02-12T06:38:31.312Z,102441.31
2023-02-12T06:40:59.286Z,102451.13
2023-02-12T06:43:27.185Z,102446.47
2023-02-12T06:45:55.259Z,102446.75
2023-02-12T06:48:23.476Z,102441.56
2023-02-12T06:50:51.279Z,102451.25
2023-02-12T06:53:19.038Z,102454.00
2023-02-12T06:55:46.861Z,102458.75
2023-02-12T06:58:14.648Z,102463.13
2023-02-12T07:00:42.505Z,102450.56
2023-02-12T07:03:10.382Z,102455.44
2023-02-12T07:05:38.152Z,102456.66
2023-02-12T07:08:05.941Z,102461.50
2023-02-12T07:10:33.701Z,102475.00
2023-02-12T07:13:01.618Z,102466.00
2023-02-12T07:15:29.436Z,102469.19
2023-02-12T07:17:57.251Z,102467.69
2023-02-12T07:20:25.049Z,102472.28
2023-02-12T07:22:52.848Z,102476.75
2023-02-12T07:25:20.745Z,102479.25
2023-02-12T07:27:48.546Z,102478.69
2023-02-12T07:30:16.330Z,102475.59
2023-02-12T07:32:44.074Z,102475.00
2023-02-12T07:35:11.974Z,102477.91
2023-02-12T07:37:39.745Z,102488.00
2023-02-12T07:40:07.478Z,102490.78
2023-02-12T07:42:36.242Z,102488.09
2023-02-12T07:45:04.157Z,102492.69
2023-02-12T07:47:31.953Z,102499.66
2023-02-12T07:49:59.723Z,102505.22
2023-02-12T07:52:27.592Z,102500.47
2023-02-12T07:54:55.549Z,102505.50
2023-02-12T07:57:23.426Z,102516.78
2023-02-12T07:59:51.305Z,102504.06
2023-02-12T08:02:19.093Z,102509.06
2023-02-12T08:04:46.924Z,102518.94
2023-02-12T08:07:14.804Z,102513.78
2023-02-12T08:09:42.608Z,102516.19
2023-02-12T08:12:10.416Z,102519.22
2023-02-12T08:14:38.337Z,102520.66
2023-02-12T08:17:06.147Z,102525.84
2023-02-12T08:19:33.916Z,102518.47
2023-02-12T08:22:03.090Z,102518.47
2023-02-12T08:24:30.873Z,102530.47
2023-02-12T08:26:58.611Z,102518.34
2023-02-12T08:29:26.445Z,102527.47
2023-02-12T08:31:54.268Z,102516.63
2023-02-12T08:34:22.086Z,102531.22
2023-02-12T08:36:50.129Z,102537.00
2023-02-12T08:39:17.943Z,102531.34
2023-02-12T08:41:45.731Z,102535.94
2023-02-12T08:44:13.555Z,102535.84
2023-02-12T08:46:41.368Z,102534.81
2023-02-12T08:49:10.736Z,102540.41
2023-02-12T08:51:38.468Z,102538.94
2023-02-12T08:54:06.237Z,102534.88
2023-02-12T08:56:34.059Z,102537.94
2023-02-12T08:59:01.794Z,102537.44
2023-02-12T09:01:29.675Z,102539.44
2023-02-12T09:03:57.494Z,102546.19
2023-02-12T09:06:25.564Z,102540.31
2023-02-12T09:08:53.476Z,102549.00
2023-02-12T09:11:21.653Z,102554.94
2023-02-12T09:13:49.406Z,102560.50
2023-02-12T09:16:17.392Z,102553.81
2023-02-12T09:18:45.794Z,102554.53
2023-02-12T09:21:13.686Z,102566.72
2023-02-12T09:23:41.531Z,102561.56
2023-02-12T09:26:09.399Z,102557.78
2023-02-12T09:28:37.479Z,102562.34
2023-02-12T09:31:05.428Z,102563.19
2023-02-12T09:33:33.337Z,102571.34
2023-02-12T09:36:01.184Z,102573.59
2023-02-12T09:38:28.991Z,102566.78
2023-02-12T09:40:56.783Z,102578.38
2023-02-12T09:43:24.652Z,102577.28
2023-02-12T09:45:52.561Z,102579.97
2023-02-12T09:48:20.531Z,102590.84
2023-02-12T09:50:48.450Z,102585.50
2023-02-12T09:53:16.349Z,102587.56
2023-02-12T09:55:44.413Z,102595.19
2023-02-12T09:58:12.161Z,102593.91
2023-02-12T10:00:39.992Z,102599.53
2023-02-12T10:03:07.793Z,102595.66
2023-02-12T10:05:35.628Z,102600.28
2023-02-12T10:08:03.425Z,102593.50
2023-02-12T10:10:31.187Z,102599.81
2023-02-12T10:12:59.044Z,102598.69
2023-02-12T10:15:27.024Z,102594.91
2023-02-12T10:17:54.936Z,102594.63
2023-02-12T10:20:22.856Z,102598.78
2023-02-12T10:25:39.467Z,102600.19
2023-02-12T10:28:07.345Z,102603.91
2023-02-12T10:30:35.169Z,102605.06
2023-02-12T10:33:03.076Z,102598.28
2023-02-12T10:35:30.784Z,102600.56
2023-02-12T10:37:58.521Z,102590.06
2023-02-12T10:40:27.654Z,102597.81
2023-02-12T10:42:55.445Z,102606.44
2023-02-12T10:45:23.325Z,102597.63
2023-02-12T10:47:51.080Z,102587.28
2023-02-12T10:50:19.007Z,102596.63
2023-02-12T10:52:53.028Z,102602.34
2023-02-12T10:55:20.848Z,102599.63
2023-02-12T10:57:48.637Z,102584.38
2023-02-12T11:00:16.391Z,102596.25
2023-02-12T11:02:44.250Z,102595.66
2023-02-12T11:05:15.003Z,102588.50
2023-02-12T11:07:42.767Z,102589.63
2023-02-12T11:10:10.530Z,102590.78
2023-02-12T11:12:39.680Z,102594.47
2023-02-12T11:15:07.436Z,102588.28
2023-02-12T11:17:35.215Z,102585.84
2023-02-12T11:20:03.949Z,102583.41
2023-02-12T11:22:31.738Z,102583.41
2023-02-12T11:24:59.578Z,102581.81
2023-02-12T11:27:28.708Z,102582.94
2023-02-12T11:29:56.523Z,102584.94
2023-02-12T11:32:24.262Z,102582.19
2023-02-12T11:34:52.210Z,102584.94
2023-02-12T11:37:20.020Z,102581.50
2023-02-12T11:39:47.848Z,102576.28
2023-02-12T11:42:16.454Z,102581.91
2023-02-12T11:44:44.257Z,102576.28
2023-02-12T11:47:12.237Z,102574.00
2023-02-12T11:49:39.999Z,102579.44
2023-02-12T11:52:07.888Z,102576.84
2023-02-12T11:54:35.628Z,102575.13
2023-02-12T11:57:03.393Z,102569.66
2023-02-12T11:59:31.245Z,102577.97
2023-02-12T12:01:59.064Z,102567.22
2023-02-12T12:04:26.945Z,102571.78
2023-02-12T12:06:54.728Z,102572.91
2023-02-12T12:09:22.561Z,102576.78
2023-02-12T12:11:50.310Z,102577.22
2023-02-12T12:14:18.256Z,102576.47
2023-02-12T12:17:03.699Z,102583.63
2023-02-12T12:19:51.237Z,102584.78
2023-02-12T12:22:19.109Z,102583.06
2023-02-12T12:24:46.928Z,102577.72
2023-02-12T12:27:35.172Z,102576.00
2023-02-12T12:30:07.121Z,102575.25
2023-02-12T12:32:35.005Z,102577.25
2023-02-12T12:35:07.310Z,102581.00
2023-02-12T12:37:35.256Z,102572.94
2023-02-12T12:40:03.277Z,102574.69
2023-02-12T12:42:31.296Z,102571.22
2023-02-12T12:44:59.114Z,102557.00
2023-02-12T12:47:26.939Z,102559.84
2023-02-12T12:50:02.163Z,102563.59
2023-02-12T12:52:30.683Z,102557.94
2023-02-12T12:54:58.654Z,102562.78
2023-02-12T12:57:26.999Z,102556.88
2023-02-12T12:59:54.806Z,102569.44
2023-02-12T13:02:22.856Z,102566.06
2023-02-12T13:04:50.639Z,102565.06
2023-02-12T13:07:18.633Z,102561.59
2023-02-12T13:09:46.561Z,102564.34
2023-02-12T13:12:14.418Z,102553.59
2023-02-12T13:14:42.816Z,102556.94
2023-02-12T13:17:15.081Z,102557.88
2023-02-12T13:22:30.654Z,102554.56
2023-02-12T13:24:58.452Z,102553.19
2023-02-12T13:27:26.374Z,102554.25
2023-02-12T13:29:54.321Z,102557.06
2023-02-12T13:32:22.191Z,102557.78
2023-02-12T13:34:50.030Z,102556.97
2023-02-12T13:37:17.844Z,102563.38
2023-02-12T13:39:45.632Z,102550.34
2023-02-12T13:42:13.653Z,102538.28
2023-02-12T13:44:44.622Z,102530.84
2023-02-12T13:47:16.546Z,102533.97
2023-02-12T13:49:45.780Z,102535.22
2023-02-12T13:52:13.703Z,102542.00
2023-02-12T13:54:41.633Z,102537.66
2023-02-12T13:57:09.437Z,102533.44
2023-02-12T13:59:37.261Z,102530.41
2023-02-12T14:02:05.115Z,102534.41
2023-02-12T14:04:33.212Z,102540.03
2023-02-12T14:07:01.474Z,102543.75
2023-02-12T14:09:30.016Z,102533.63
2023-02-12T14:11:57.778Z,102538.56
2023-02-12T14:14:25.580Z,102539.59
2023-02-12T14:16:53.506Z,102533.75
2023-02-12T14:19:21.290Z,102536.31
2023-02-12T14:21:49.095Z,102532.97
2023-02-12T14:24:16.866Z,102532.44
2023-02-12T14:26:44.642Z,102530.16
2023-02-12T14:29:12.798Z,102527.69
2023-02-12T14:31:41.037Z,102537.06
2023-02-12T14:34:08.900Z,102534.56
2023-02-12T14:36:40.715Z,102532.53
2023-02-12T14:39:08.689Z,102532.19
2023-02-12T14:41:38.573Z,102534.97
2023-02-12T14:44:07.349Z,102536.69
2023-02-12T14:46:35.307Z,102528.50
2023-02-12T14:49:05.694Z,102530.75
2023-02-12T14:51:33.483Z,102530.06
2023-02-12T14:54:01.253Z,102525.06
2023-02-12T14:56:29.433Z,102535.13
2023-02-12T14:58:57.239Z,102532.78
2023-02-12T15:01:25.106Z,102535.97
2023-02-12T15:03:52.906Z,102544.81
2023-02-12T15:06:20.780Z,102546.78
2023-02-12T15:08:48.545Z,102543.66
2023-02-12T15:11:16.700Z,102545.22
2023-02-12T15:13:44.467Z,102548.88
2023-02-12T15:16:12.291Z,102552.03
2023-02-12T15:18:40.134Z,102551.00
2023-02-12T15:21:08.058Z,102552.75
2023-02-12T15:23:35.826Z,102551.91
2023-02-12T15:26:03.693Z,102542.78
2023-02-12T15:28:33.563Z,102546.66
2023-02-12T15:31:01.637Z,102552.09
2023-02-12T15:33:29.513Z,102547.00
2023-02-12T15:35:57.623Z,102553.13
2023-02-12T15:38:25.758Z,102547.03
2023-02-12T15:40:53.554Z,102542.84
2023-02-12T15:43:21.610Z,102542.31
2023-02-12T15:45:49.505Z,102551.22
2023-02-12T15:48:17.429Z,102560.25
2023-02-12T15:50:45.371Z,102550.69
2023-02-12T15:53:13.193Z,102552.56
2023-02-12T15:55:41.156Z,102551.91
2023-02-12T15:58:08.914Z,102549.09
2023-02-12T16:00:36.828Z,102553.28
2023-02-12T16:03:04.605Z,102547.50
2023-02-12T16:05:34.805Z,102555.16
2023-02-12T16:08:02.993Z,102549.81
2023-02-12T16:10:30.865Z,102552.00
2023-02-12T16:12:58.649Z,102556.72
2023-02-12T16:15:26.938Z,102555.91
2023-02-12T16:17:54.791Z,102556.81
2023-02-12T16:20:23.234Z,102557.38
2023-02-12T16:22:51.356Z,102551.56
2023-02-12T16:25:19.212Z,102559.81
2023-02-12T16:27:47.046Z,102557.25
2023-02-12T16:30:14.824Z,102556.53
2023-02-12T16:32:42.646Z,102567.50
2023-02-12T16:35:10.618Z,102562.66
2023-02-12T16:37:38.550Z,102561.88
2023-02-12T16:40:06.400Z,102574.94
2023-02-12T16:42:34.238Z,102581.19
2023-02-12T16:45:02.003Z,102576.25
2023-02-12T16:47:29.827Z,102577.44
2023-02-12T16:49:57.578Z,102577.22
2023-02-12T16:52:25.454Z,102583.44
2023-02-12T16:54:53.278Z,102584.91
2023-02-12T16:57:21.196Z,102584.25
2023-02-12T16:59:48.994Z,102579.22
2023-02-12T17:02:16.778Z,102589.53
2023-02-12T17:04:44.579Z,102582.69
2023-02-12T17:07:12.377Z,102584.34
2023-02-12T17:09:40.287Z,102594.25
2023-02-12T17:12:08.074Z,102592.41
2023-02-12T17:14:35.828Z,102598.16
2023-02-12T17:17:03.687Z,102588.66
2023-02-12T17:19:31.630Z,102593.97
2023-02-12T17:21:59.460Z,102605.69
2023-02-12T17:24:27.279Z,102592.81
2023-02-12T17:26:55.126Z,102606.63
2023-02-12T17:29:22.883Z,102601.88
2023-02-12T17:31:53.532Z,102599.59
2023-02-12T17:34:23.928Z,102599.09
2023-02-12T17:36:51.669Z,102606.28
2023-02-12T17:39:19.554Z,102603.44
2023-02-12T17:41:47.474Z,102601.94
2023-02-12T17:44:15.720Z,102607.97
2023-02-12T17:46:43.641Z,102601.72
2023-02-12T17:49:11.489Z,102598.88
2023-02-12T17:51:39.293Z,102601.44
2023-02-12T17:54:07.586Z,102600.28
2023-02-12T17:56:35.363Z,102593.13
2023-02-12T17:59:03.127Z,102595.19
2023-02-12T18:01:31.067Z,102588.91
2023-02-12T18:03:58.949Z,102589.56
2023-02-12T18:06:26.762Z,102584.63
2023-02-12T18:08:55.342Z,102589.16
2023-02-12T18:11:23.168Z,102589.31
2023-02-12T18:13:50.965Z,102587.28
2023-02-12T18:16:18.775Z,102588.81
2023-02-12T18:18:46.752Z,102588.81
2023-02-12T18:21:14.538Z,102586.63
2023-02-12T18:23:42.344Z,102586.38
2023-02-12T18:26:10.371Z,102588.19
2023-02-12T18:28:38.242Z,102585.25
2023-02-12T18:31:06.163Z,102589.41
2023-02-12T18:33:33.945Z,102585.13
2023-02-12T18:36:01.714Z,102584.41
2023-02-12T18:38:29.488Z,102589.44
2023-02-12T18:40:57.486Z,102589.75
2023-02-12T18:43:25.456Z,102595.97
2023-02-12T18:45:55.139Z,102592.09
2023-02-12T18:48:23.287Z,102579.50
2023-02-12T18:50:53.287Z,102591.06
2023-02-12T18:53:21.281Z,102588.56
2023-02-12T18:55:50.174Z,102588.78
2023-02-12T18:58:17.957Z,102586.38
2023-02-12T19:00:45.743Z,102591.06
2023-02-12T19:03:13.979Z,102583.72
2023-02-12T19:05:41.737Z,102578.16
2023-02-12T19:08:09.665Z,102589.72
2023-02-12T19:10:38.187Z,102594.00
2023-02-12T19:13:06.018Z,102580.44
2023-02-12T19:15:33.834Z,102590.66
2023-02-12T19:18:01.605Z,102595.50
2023-02-12T19:20:29.474Z,102593.88
2023-02-12T19:22:57.311Z,102589.41
2023-02-12T19:25:25.259Z,102598.81
2023-02-12T19:27:53.276Z,102599.53
2023-02-12T19:30:21.168Z,102598.97
2023-02-12T19:32:48.901Z,102605.63
2023-02-12T19:35:16.677Z,102601.94
2023-02-12T19:37:44.790Z,102610.00
2023-02-12T19:40:12.586Z,102607.69
2023-02-12T19:42:40.578Z,102598.25
2023-02-12T19:45:08.415Z,102600.81
2023-02-12T19:47:36.140Z,102593.75
2023-02-12T19:50:03.896Z,102596.72
2023-02-12T19:52:31.788Z,102584.72
2023-02-12T19:54:59.713Z,102579.09
2023-02-12T19:57:27.536Z,102584.28
2023-02-12T19:59:55.415Z,102578.19
2023-02-12T20:02:23.229Z,102579.66
2023-02-12T20:04:51.003Z,102591.13
2023-02-12T20:07:18.758Z,102592.72
2023-02-12T20:09:46.565Z,102591.25
2023-02-12T20:12:14.357Z,102585.09
2023-02-12T20:14:42.100Z,102597.31
2023-02-12T20:17:09.877Z,102598.69
2023-02-12T20:19:37.602Z,102593.28
2023-02-12T20:22:05.385Z,102594.88
2023-02-12T20:24:33.287Z,102592.28
2023-02-12T20:27:01.018Z,102590.34
2023-02-12T20:29:28.985Z,102593.66
2023-02-12T20:31:56.857Z,102601.97
2023-02-12T20:34:24.778Z,102593.31
2023-02-12T20:36:53.943Z,102596.88
2023-02-12T20:39:21.753Z,102594.50
2023-02-12T20:41:49.556Z,102600.75
2023-02-12T20:44:17.324Z,102590.75
2023-02-12T20:46:45.221Z,102594.22
2023-02-12T20:49:13.022Z,102594.78
2023-02-12T20:51:40.809Z,102589.81
2023-02-12T20:54:08.590Z,102583.50
2023-02-12T20:56:37.577Z,102590.38
2023-02-12T20:59:05.346Z,102587.38
2023-02-12T21:01:34.637Z,102584.69
2023-02-12T21:04:02.513Z,102588.69
2023-02-12T21:06:30.256Z,102585.25
2023-02-12T21:08:58.158Z,102590.09
2023-02-12T21:11:26.036Z,102598.34
2023-02-12T21:14:02.599Z,102600.25
2023-02-12T21:16:30.676Z,102602.03
2023-02-12T21:18:58.800Z,102606.09
2023-02-12T21:21:26.659Z,102601.06
2023-02-12T21:23:55.932Z,102601.25
2023-02-12T21:26:24.400Z,102600.09
2023-02-12T21:28:52.246Z,102609.16
2023-02-12T21:31:20.192Z,102603.44
2023-02-12T21:33:47.960Z,102607.75
2023-02-12T21:36:15.939Z,102603.84
2023-02-12T21:38:43.767Z,102597.09
2023-02-12T21:41:11.745Z,102599.41
2023-02-12T21:43:39.508Z,102600.97
2023-02-12T21:46:07.346Z,102600.28
2023-02-12T21:48:35.119Z,102596.19
2023-02-12T21:51:02.916Z,102599.50
2023-02-12T21:53:30.833Z,102594.34
2023-02-12T21:55:58.830Z,102600.09
2023-02-12T21:58:26.738Z,102595.03
2023-02-12T22:00:54.875Z,102608.25
2023-02-12T22:03:22.930Z,102602.06
2023-02-12T22:05:50.725Z,102606.09
2023-02-12T22:08:18.541Z,102604.50
2023-02-12T22:10:46.334Z,102611.13
2023-02-12T22:13:14.140Z,102608.66
2023-02-12T22:15:41.943Z,102612.50
2023-02-12T22:18:09.756Z,102608.47
2023-02-12T22:20:37.682Z,102610.63
2023-02-12T22:23:05.449Z,102608.19
2023-02-12T22:25:33.337Z,102611.06
2023-02-12T22:28:01.145Z,102609.34
2023-02-12T22:30:29.340Z,102612.34
2023-02-12T22:32:57.123Z,102610.75
2023-02-12T22:35:24.888Z,102610.88
2023-02-12T22:37:52.658Z,102614.03
2023-02-12T22:40:20.404Z,102617.03
2023-02-12T22:42:48.163Z,102618.91
2023-02-12T22:45:15.927Z,102620.78
2023-02-12T22:47:43.723Z,102618.44
2023-02-12T22:50:11.479Z,102620.16
2023-02-12T22:52:39.352Z,102615.84
2023-02-12T22:55:07.241Z,102616.97
2023-02-12T22:57:35.045Z,102617.22
2023-02-12T23:00:02.876Z,102626.44
2023-02-12T23:02:30.659Z,102620.38
2023-02-12T23:04:58.435Z,102622.38
2023-02-12T23:07:26.354Z,102618.78
2023-02-12T23:09:55.476Z,102632.41
2023-02-12T23:12:23.496Z,102622.50
2023-02-12T23:14:51.561Z,102619.78
2023-02-12T23:17:19.492Z,102622.78
2023-02-12T23:19:47.259Z,102622.91
2023-02-12T23:22:15.071Z,102618.31
2023-02-12T23:24:42.836Z,102611.41
2023-02-12T23:27:10.662Z,102616.00
2023-02-12T23:29:38.685Z,102610.69
2023-02-12T23:32:06.478Z,102620.88
2023-02-12T23:34:34.261Z,102619.25
2023-02-12T23:37:02.096Z,102618.41
2023-02-12T23:39:37.321Z,102616.69
2023-02-12T23:42:05.790Z,102619.41
2023-02-12T23:44:33.685Z,102608.63
2023-02-12T23:47:02.171Z,102613.34
2023-02-12T23:49:30.433Z,102616.22
2023-02-12T23:51:58.365Z,102611.91
2023-02-12T23:54:26.263Z,102614.75
2023-02-12T23:56:54.144Z,102615.78
2023-02-12T23:59:21.924Z,102619.34
